sensor_id;sensor_type;location;lat;lon;timestamp;P1;durP1;ratioP1;P2;durP2;ratioP2
55069;SDS011;40967;52.070;8.596;2024-03-08T00:01:27;10.70;;;6.78;;
55069;SDS011;40967;52.070;8.596;2024-03-08T00:03:57;11.20;;;6.38;;
55069;SDS011;40967;52.070;8.596;2024-03-08T00:06:24;11.17;;;6.77;;
55069;SDS011;40967;52.070;8.596;2024-03-08T00:08:51;10.23;;;6.10;;
55069;SDS011;40967;52.070;8.596;2024-03-08T00:11:19;11.35;;;6.60;;
55069;SDS011;40967;52.070;8.596;2024-03-08T00:13:46;11.05;;;6.72;;
55069;SDS011;40967;52.070;8.596;2024-03-08T00:16:13;11.48;;;7.00;;
55069;SDS011;40967;52.070;8.596;2024-03-08T00:18:41;11.35;;;7.18;;
55069;SDS011;40967;52.070;8.596;2024-03-08T00:21:12;11.40;;;6.93;;
55069;SDS011;40967;52.070;8.596;2024-03-08T00:23:40;12.77;;;7.88;;
55069;SDS011;40967;52.070;8.596;2024-03-08T00:26:10;11.80;;;7.07;;
55069;SDS011;40967;52.070;8.596;2024-03-08T00:28:36;12.03;;;7.30;;
55069;SDS011;40967;52.070;8.596;2024-03-08T00:31:06;11.48;;;7.25;;
55069;SDS011;40967;52.070;8.596;2024-03-08T00:33:33;12.43;;;7.60;;
55069;SDS011;40967;52.070;8.596;2024-03-08T00:36:04;14.93;;;8.50;;
55069;SDS011;40967;52.070;8.596;2024-03-08T00:38:32;14.85;;;8.88;;
55069;SDS011;40967;52.070;8.596;2024-03-08T00:40:59;15.68;;;9.13;;
55069;SDS011;40967;52.070;8.596;2024-03-08T00:43:27;15.80;;;10.23;;
55069;SDS011;40967;52.070;8.596;2024-03-08T00:45:53;15.07;;;9.77;;
55069;SDS011;40967;52.070;8.596;2024-03-08T00:48:19;14.77;;;9.30;;
55069;SDS011;40967;52.070;8.596;2024-03-08T00:50:49;15.97;;;9.50;;
55069;SDS011;40967;52.070;8.596;2024-03-08T00:53:21;15.95;;;9.77;;
55069;SDS011;40967;52.070;8.596;2024-03-08T00:55:48;16.60;;;10.77;;
55069;SDS011;40967;52.070;8.596;2024-03-08T00:58:15;20.10;;;12.55;;
55069;SDS011;40967;52.070;8.596;2024-03-08T01:00:42;18.10;;;10.55;;
55069;SDS011;40967;52.070;8.596;2024-03-08T01:03:09;18.60;;;11.07;;
55069;SDS011;40967;52.070;8.596;2024-03-08T01:05:39;18.58;;;11.65;;
55069;SDS011;40967;52.070;8.596;2024-03-08T01:08:06;18.67;;;10.88;;
55069;SDS011;40967;52.070;8.596;2024-03-08T01:10:36;17.75;;;10.30;;
55069;SDS011;40967;52.070;8.596;2024-03-08T01:13:03;17.50;;;11.00;;
55069;SDS011;40967;52.070;8.596;2024-03-08T01:15:31;15.87;;;10.10;;
55069;SDS011;40967;52.070;8.596;2024-03-08T01:17:58;16.67;;;10.77;;
55069;SDS011;40967;52.070;8.596;2024-03-08T01:20:26;17.50;;;10.90;;
55069;SDS011;40967;52.070;8.596;2024-03-08T01:22:53;16.20;;;9.98;;
55069;SDS011;40967;52.070;8.596;2024-03-08T01:25:22;18.40;;;11.57;;
55069;SDS011;40967;52.070;8.596;2024-03-08T01:27:51;18.27;;;11.02;;
55069;SDS011;40967;52.070;8.596;2024-03-08T01:30:18;19.07;;;11.63;;
55069;SDS011;40967;52.070;8.596;2024-03-08T01:32:46;18.17;;;12.00;;
55069;SDS011;40967;52.070;8.596;2024-03-08T01:35:12;17.83;;;10.93;;
55069;SDS011;40967;52.070;8.596;2024-03-08T01:37:39;18.77;;;11.93;;
55069;SDS011;40967;52.070;8.596;2024-03-08T01:40:06;19.63;;;12.20;;
55069;SDS011;40967;52.070;8.596;2024-03-08T01:45:19;19.15;;;11.60;;
55069;SDS011;40967;52.070;8.596;2024-03-08T01:47:47;17.40;;;11.05;;
55069;SDS011;40967;52.070;8.596;2024-03-08T01:50:16;19.83;;;12.40;;
55069;SDS011;40967;52.070;8.596;2024-03-08T01:52:44;18.33;;;11.65;;
55069;SDS011;40967;52.070;8.596;2024-03-08T01:55:11;18.27;;;10.82;;
55069;SDS011;40967;52.070;8.596;2024-03-08T01:57:40;15.75;;;9.70;;
55069;SDS011;40967;52.070;8.596;2024-03-08T02:00:12;17.48;;;10.85;;
55069;SDS011;40967;52.070;8.596;2024-03-08T02:02:41;15.20;;;9.68;;
55069;SDS011;40967;52.070;8.596;2024-03-08T02:05:12;18.85;;;11.82;;
55069;SDS011;40967;52.070;8.596;2024-03-08T02:07:40;15.57;;;9.95;;
55069;SDS011;40967;52.070;8.596;2024-03-08T02:10:09;16.40;;;10.02;;
55069;SDS011;40967;52.070;8.596;2024-03-08T02:12:37;20.35;;;11.48;;
55069;SDS011;40967;52.070;8.596;2024-03-08T02:15:04;17.52;;;11.27;;
55069;SDS011;40967;52.070;8.596;2024-03-08T02:17:33;18.02;;;11.27;;
55069;SDS011;40967;52.070;8.596;2024-03-08T02:20:00;18.15;;;10.60;;
55069;SDS011;40967;52.070;8.596;2024-03-08T02:22:31;15.88;;;10.05;;
55069;SDS011;40967;52.070;8.596;2024-03-08T02:24:58;16.70;;;9.90;;
55069;SDS011;40967;52.070;8.596;2024-03-08T02:27:26;15.65;;;9.27;;
55069;SDS011;40967;52.070;8.596;2024-03-08T02:29:55;14.73;;;9.02;;
55069;SDS011;40967;52.070;8.596;2024-03-08T02:32:25;14.00;;;8.80;;
55069;SDS011;40967;52.070;8.596;2024-03-08T02:34:55;13.53;;;8.73;;
55069;SDS011;40967;52.070;8.596;2024-03-08T02:37:25;13.52;;;8.45;;
55069;SDS011;40967;52.070;8.596;2024-03-08T02:39:54;13.38;;;8.15;;
55069;SDS011;40967;52.070;8.596;2024-03-08T02:42:21;13.15;;;8.07;;
55069;SDS011;40967;52.070;8.596;2024-03-08T02:44:50;13.00;;;7.90;;
55069;SDS011;40967;52.070;8.596;2024-03-08T02:47:17;14.55;;;8.50;;
55069;SDS011;40967;52.070;8.596;2024-03-08T02:49:45;15.70;;;9.20;;
55069;SDS011;40967;52.070;8.596;2024-03-08T02:52:12;14.60;;;8.93;;
55069;SDS011;40967;52.070;8.596;2024-03-08T02:54:39;15.07;;;9.35;;
55069;SDS011;40967;52.070;8.596;2024-03-08T02:57:07;15.07;;;9.18;;
55069;SDS011;40967;52.070;8.596;2024-03-08T02:59:34;14.82;;;8.60;;
55069;SDS011;40967;52.070;8.596;2024-03-08T03:02:04;15.18;;;9.23;;
55069;SDS011;40967;52.070;8.596;2024-03-08T03:04:35;20.23;;;11.82;;
55069;SDS011;40967;52.070;8.596;2024-03-08T03:07:02;18.63;;;10.73;;
55069;SDS011;40967;52.070;8.596;2024-03-08T03:09:29;18.87;;;11.13;;
55069;SDS011;40967;52.070;8.596;2024-03-08T03:11:58;18.27;;;11.43;;
55069;SDS011;40967;52.070;8.596;2024-03-08T03:14:29;20.40;;;11.80;;
55069;SDS011;40967;52.070;8.596;2024-03-08T03:16:55;19.23;;;11.80;;
55069;SDS011;40967;52.070;8.596;2024-03-08T03:19:25;20.65;;;12.23;;
55069;SDS011;40967;52.070;8.596;2024-03-08T03:21:53;23.10;;;13.27;;
55069;SDS011;40967;52.070;8.596;2024-03-08T03:24:20;18.55;;;11.80;;
55069;SDS011;40967;52.070;8.596;2024-03-08T03:26:49;21.05;;;12.35;;
55069;SDS011;40967;52.070;8.596;2024-03-08T03:29:17;20.05;;;11.43;;
55069;SDS011;40967;52.070;8.596;2024-03-08T03:31:45;19.10;;;11.32;;
55069;SDS011;40967;52.070;8.596;2024-03-08T03:34:12;19.15;;;11.55;;
55069;SDS011;40967;52.070;8.596;2024-03-08T03:36:38;20.87;;;12.37;;
55069;SDS011;40967;52.070;8.596;2024-03-08T03:39:07;18.52;;;11.48;;
55069;SDS011;40967;52.070;8.596;2024-03-08T03:41:37;17.97;;;11.33;;
55069;SDS011;40967;52.070;8.596;2024-03-08T03:44:07;20.48;;;11.27;;
55069;SDS011;40967;52.070;8.596;2024-03-08T03:46:35;18.90;;;11.83;;
55069;SDS011;40967;52.070;8.596;2024-03-08T03:49:03;20.20;;;11.90;;
55069;SDS011;40967;52.070;8.596;2024-03-08T03:51:30;17.93;;;11.20;;
55069;SDS011;40967;52.070;8.596;2024-03-08T03:53:56;16.65;;;10.35;;
55069;SDS011;40967;52.070;8.596;2024-03-08T03:56:25;17.90;;;11.30;;
55069;SDS011;40967;52.070;8.596;2024-03-08T03:58:52;18.20;;;11.30;;
55069;SDS011;40967;52.070;8.596;2024-03-08T04:01:19;16.38;;;10.13;;
55069;SDS011;40967;52.070;8.596;2024-03-08T04:03:46;16.53;;;10.23;;
55069;SDS011;40967;52.070;8.596;2024-03-08T04:06:15;16.85;;;10.60;;
55069;SDS011;40967;52.070;8.596;2024-03-08T04:08:43;16.10;;;10.18;;
55069;SDS011;40967;52.070;8.596;2024-03-08T04:11:09;15.90;;;9.45;;
55069;SDS011;40967;52.070;8.596;2024-03-08T04:13:37;15.32;;;9.07;;
55069;SDS011;40967;52.070;8.596;2024-03-08T04:16:06;15.82;;;8.98;;
55069;SDS011;40967;52.070;8.596;2024-03-08T04:18:33;15.23;;;9.02;;
55069;SDS011;40967;52.070;8.596;2024-03-08T04:21:03;13.00;;;8.27;;
55069;SDS011;40967;52.070;8.596;2024-03-08T04:23:34;14.75;;;8.50;;
55069;SDS011;40967;52.070;8.596;2024-03-08T04:26:01;15.32;;;8.40;;
55069;SDS011;40967;52.070;8.596;2024-03-08T04:28:31;14.55;;;9.10;;
55069;SDS011;40967;52.070;8.596;2024-03-08T04:30:58;14.43;;;8.75;;
55069;SDS011;40967;52.070;8.596;2024-03-08T04:33:28;14.48;;;8.25;;
55069;SDS011;40967;52.070;8.596;2024-03-08T04:35:56;13.57;;;8.23;;
55069;SDS011;40967;52.070;8.596;2024-03-08T04:38:23;11.90;;;7.03;;
55069;SDS011;40967;52.070;8.596;2024-03-08T04:40:52;13.07;;;7.82;;
55069;SDS011;40967;52.070;8.596;2024-03-08T04:43:19;13.52;;;7.57;;
55069;SDS011;40967;52.070;8.596;2024-03-08T04:45:45;12.60;;;7.57;;
55069;SDS011;40967;52.070;8.596;2024-03-08T04:48:13;11.90;;;7.45;;
55069;SDS011;40967;52.070;8.596;2024-03-08T04:50:40;13.60;;;8.48;;
55069;SDS011;40967;52.070;8.596;2024-03-08T04:53:07;14.52;;;8.23;;
55069;SDS011;40967;52.070;8.596;2024-03-08T04:55:36;14.35;;;8.30;;
55069;SDS011;40967;52.070;8.596;2024-03-08T04:58:09;14.50;;;8.93;;
55069;SDS011;40967;52.070;8.596;2024-03-08T05:00:36;14.23;;;8.65;;
55069;SDS011;40967;52.070;8.596;2024-03-08T05:03:04;13.00;;;7.78;;
55069;SDS011;40967;52.070;8.596;2024-03-08T05:05:33;12.45;;;7.97;;
55069;SDS011;40967;52.070;8.596;2024-03-08T05:08:01;14.70;;;8.63;;
55069;SDS011;40967;52.070;8.596;2024-03-08T05:10:28;14.82;;;8.55;;
55069;SDS011;40967;52.070;8.596;2024-03-08T05:12:58;15.32;;;8.20;;
55069;SDS011;40967;52.070;8.596;2024-03-08T05:15:42;13.67;;;8.27;;
55069;SDS011;40967;52.070;8.596;2024-03-08T05:18:26;14.45;;;8.25;;
55069;SDS011;40967;52.070;8.596;2024-03-08T05:20:59;14.77;;;8.80;;
55069;SDS011;40967;52.070;8.596;2024-03-08T05:23:47;14.82;;;8.32;;
55069;SDS011;40967;52.070;8.596;2024-03-08T05:26:15;14.68;;;8.45;;
55069;SDS011;40967;52.070;8.596;2024-03-08T05:28:44;14.02;;;7.93;;
55069;SDS011;40967;52.070;8.596;2024-03-08T05:31:18;14.98;;;8.73;;
55069;SDS011;40967;52.070;8.596;2024-03-08T05:33:47;13.88;;;8.15;;
55069;SDS011;40967;52.070;8.596;2024-03-08T05:36:19;13.98;;;8.40;;
55069;SDS011;40967;52.070;8.596;2024-03-08T05:38:46;13.35;;;8.13;;
55069;SDS011;40967;52.070;8.596;2024-03-08T05:41:15;13.75;;;8.68;;
55069;SDS011;40967;52.070;8.596;2024-03-08T05:43:43;12.02;;;7.40;;
55069;SDS011;40967;52.070;8.596;2024-03-08T05:46:10;15.07;;;8.60;;
55069;SDS011;40967;52.070;8.596;2024-03-08T05:48:38;15.85;;;9.60;;
55069;SDS011;40967;52.070;8.596;2024-03-08T05:51:05;14.10;;;8.20;;
55069;SDS011;40967;52.070;8.596;2024-03-08T05:53:32;13.88;;;8.02;;
55069;SDS011;40967;52.070;8.596;2024-03-08T05:56:12;13.32;;;7.65;;
55069;SDS011;40967;52.070;8.596;2024-03-08T05:58:39;13.65;;;7.95;;
55069;SDS011;40967;52.070;8.596;2024-03-08T06:01:06;15.30;;;8.88;;
55069;SDS011;40967;52.070;8.596;2024-03-08T06:03:33;14.10;;;8.43;;
55069;SDS011;40967;52.070;8.596;2024-03-08T06:06:01;13.65;;;7.50;;
55069;SDS011;40967;52.070;8.596;2024-03-08T06:08:30;13.68;;;8.07;;
55069;SDS011;40967;52.070;8.596;2024-03-08T06:10:57;14.50;;;8.93;;
55069;SDS011;40967;52.070;8.596;2024-03-08T06:13:24;13.57;;;7.78;;
55069;SDS011;40967;52.070;8.596;2024-03-08T06:15:51;13.57;;;8.40;;
55069;SDS011;40967;52.070;8.596;2024-03-08T06:18:18;14.40;;;8.60;;
55069;SDS011;40967;52.070;8.596;2024-03-08T06:20:46;14.60;;;8.18;;
55069;SDS011;40967;52.070;8.596;2024-03-08T06:23:14;13.43;;;7.80;;
55069;SDS011;40967;52.070;8.596;2024-03-08T06:25:42;13.82;;;8.20;;
55069;SDS011;40967;52.070;8.596;2024-03-08T06:28:09;13.57;;;7.95;;
55069;SDS011;40967;52.070;8.596;2024-03-08T06:30:36;13.70;;;8.05;;
55069;SDS011;40967;52.070;8.596;2024-03-08T06:33:03;12.02;;;7.10;;
55069;SDS011;40967;52.070;8.596;2024-03-08T06:35:29;15.47;;;8.33;;
55069;SDS011;40967;52.070;8.596;2024-03-08T06:37:57;13.60;;;8.10;;
55069;SDS011;40967;52.070;8.596;2024-03-08T06:40:25;15.07;;;8.95;;
55069;SDS011;40967;52.070;8.596;2024-03-08T06:42:51;14.23;;;8.10;;
55069;SDS011;40967;52.070;8.596;2024-03-08T06:45:18;13.95;;;8.30;;
55069;SDS011;40967;52.070;8.596;2024-03-08T06:47:46;15.23;;;8.82;;
55069;SDS011;40967;52.070;8.596;2024-03-08T06:50:13;19.88;;;10.70;;
55069;SDS011;40967;52.070;8.596;2024-03-08T06:52:40;18.83;;;11.05;;
55069;SDS011;40967;52.070;8.596;2024-03-08T06:55:07;24.70;;;13.85;;
55069;SDS011;40967;52.070;8.596;2024-03-08T06:57:38;22.48;;;13.23;;
55069;SDS011;40967;52.070;8.596;2024-03-08T07:00:06;25.55;;;14.55;;
55069;SDS011;40967;52.070;8.596;2024-03-08T07:02:35;24.97;;;14.53;;
55069;SDS011;40967;52.070;8.596;2024-03-08T07:05:02;31.90;;;17.92;;
55069;SDS011;40967;52.070;8.596;2024-03-08T07:07:29;25.75;;;15.07;;
55069;SDS011;40967;52.070;8.596;2024-03-08T07:09:57;25.20;;;15.55;;
55069;SDS011;40967;52.070;8.596;2024-03-08T07:12:24;23.88;;;14.50;;
55069;SDS011;40967;52.070;8.596;2024-03-08T07:14:52;27.77;;;15.90;;
55069;SDS011;40967;52.070;8.596;2024-03-08T07:17:19;25.60;;;14.90;;
55069;SDS011;40967;52.070;8.596;2024-03-08T07:19:49;25.73;;;15.55;;
55069;SDS011;40967;52.070;8.596;2024-03-08T07:22:16;23.50;;;14.25;;
55069;SDS011;40967;52.070;8.596;2024-03-08T07:24:42;25.43;;;15.27;;
55069;SDS011;40967;52.070;8.596;2024-03-08T07:27:29;28.52;;;16.85;;
55069;SDS011;40967;52.070;8.596;2024-03-08T07:29:58;26.33;;;16.33;;
55069;SDS011;40967;52.070;8.596;2024-03-08T07:32:25;28.75;;;17.67;;
55069;SDS011;40967;52.070;8.596;2024-03-08T07:34:54;27.10;;;16.85;;
55069;SDS011;40967;52.070;8.596;2024-03-08T07:37:21;27.33;;;17.27;;
55069;SDS011;40967;52.070;8.596;2024-03-08T07:39:48;28.25;;;16.73;;
55069;SDS011;40967;52.070;8.596;2024-03-08T07:42:15;27.70;;;17.73;;
55069;SDS011;40967;52.070;8.596;2024-03-08T07:44:42;31.65;;;17.42;;
55069;SDS011;40967;52.070;8.596;2024-03-08T07:47:10;30.27;;;18.17;;
55069;SDS011;40967;52.070;8.596;2024-03-08T07:49:37;33.20;;;20.23;;
55069;SDS011;40967;52.070;8.596;2024-03-08T07:52:04;32.90;;;20.50;;
55069;SDS011;40967;52.070;8.596;2024-03-08T07:54:32;29.02;;;17.95;;
55069;SDS011;40967;52.070;8.596;2024-03-08T07:56:59;29.02;;;17.95;;
55069;SDS011;40967;52.070;8.596;2024-03-08T07:59:28;27.17;;;17.27;;
55069;SDS011;40967;52.070;8.596;2024-03-08T08:01:54;31.63;;;18.75;;
55069;SDS011;40967;52.070;8.596;2024-03-08T08:04:22;27.83;;;17.67;;
55069;SDS011;40967;52.070;8.596;2024-03-08T08:06:50;30.00;;;18.83;;
55069;SDS011;40967;52.070;8.596;2024-03-08T08:09:16;29.27;;;18.42;;
55069;SDS011;40967;52.070;8.596;2024-03-08T08:11:53;28.17;;;18.17;;
55069;SDS011;40967;52.070;8.596;2024-03-08T08:14:20;27.42;;;18.02;;
55069;SDS011;40967;52.070;8.596;2024-03-08T08:16:47;24.05;;;16.02;;
55069;SDS011;40967;52.070;8.596;2024-03-08T08:19:16;26.37;;;17.27;;
55069;SDS011;40967;52.070;8.596;2024-03-08T08:21:44;30.67;;;19.08;;
55069;SDS011;40967;52.070;8.596;2024-03-08T08:24:14;26.25;;;16.77;;
55069;SDS011;40967;52.070;8.596;2024-03-08T08:26:41;25.90;;;16.50;;
55069;SDS011;40967;52.070;8.596;2024-03-08T08:29:10;27.58;;;17.85;;
55069;SDS011;40967;52.070;8.596;2024-03-08T08:31:37;31.95;;;20.63;;
55069;SDS011;40967;52.070;8.596;2024-03-08T08:34:08;31.75;;;19.95;;
55069;SDS011;40967;52.070;8.596;2024-03-08T08:36:36;28.73;;;18.27;;
55069;SDS011;40967;52.070;8.596;2024-03-08T08:39:05;28.33;;;19.50;;
55069;SDS011;40967;52.070;8.596;2024-03-08T08:41:37;26.55;;;17.88;;
55069;SDS011;40967;52.070;8.596;2024-03-08T08:44:04;28.60;;;17.92;;
55069;SDS011;40967;52.070;8.596;2024-03-08T08:46:35;26.88;;;17.98;;
55069;SDS011;40967;52.070;8.596;2024-03-08T08:49:02;26.08;;;17.65;;
55069;SDS011;40967;52.070;8.596;2024-03-08T08:51:29;27.05;;;18.05;;
55069;SDS011;40967;52.070;8.596;2024-03-08T08:53:58;29.07;;;18.93;;
55069;SDS011;40967;52.070;8.596;2024-03-08T08:56:30;28.67;;;19.35;;
55069;SDS011;40967;52.070;8.596;2024-03-08T08:58:57;26.98;;;17.42;;
55069;SDS011;40967;52.070;8.596;2024-03-08T09:01:27;31.30;;;19.40;;
55069;SDS011;40967;52.070;8.596;2024-03-08T09:03:54;27.50;;;18.10;;
55069;SDS011;40967;52.070;8.596;2024-03-08T09:06:23;25.90;;;17.00;;
55069;SDS011;40967;52.070;8.596;2024-03-08T09:08:51;25.88;;;16.85;;
55069;SDS011;40967;52.070;8.596;2024-03-08T09:11:20;22.77;;;15.98;;
55069;SDS011;40967;52.070;8.596;2024-03-08T09:13:48;25.60;;;16.88;;
55069;SDS011;40967;52.070;8.596;2024-03-08T09:16:15;23.98;;;15.85;;
55069;SDS011;40967;52.070;8.596;2024-03-08T09:18:42;23.70;;;15.57;;
55069;SDS011;40967;52.070;8.596;2024-03-08T09:21:09;24.63;;;15.55;;
55069;SDS011;40967;52.070;8.596;2024-03-08T09:23:35;25.75;;;17.75;;
55069;SDS011;40967;52.070;8.596;2024-03-08T09:26:03;24.80;;;16.83;;
55069;SDS011;40967;52.070;8.596;2024-03-08T09:28:33;27.40;;;17.30;;
55069;SDS011;40967;52.070;8.596;2024-03-08T09:31:01;27.90;;;18.88;;
55069;SDS011;40967;52.070;8.596;2024-03-08T09:33:28;26.42;;;17.17;;
55069;SDS011;40967;52.070;8.596;2024-03-08T09:35:55;24.63;;;16.52;;
55069;SDS011;40967;52.070;8.596;2024-03-08T09:38:24;21.50;;;14.52;;
55069;SDS011;40967;52.070;8.596;2024-03-08T09:40:51;24.92;;;16.52;;
55069;SDS011;40967;52.070;8.596;2024-03-08T09:43:23;23.77;;;16.30;;
55069;SDS011;40967;52.070;8.596;2024-03-08T09:45:56;25.58;;;17.67;;
55069;SDS011;40967;52.070;8.596;2024-03-08T09:48:25;24.30;;;16.55;;
55069;SDS011;40967;52.070;8.596;2024-03-08T09:50:54;26.73;;;17.02;;
55069;SDS011;40967;52.070;8.596;2024-03-08T09:53:21;21.70;;;14.90;;
55069;SDS011;40967;52.070;8.596;2024-03-08T09:55:48;23.23;;;15.60;;
55069;SDS011;40967;52.070;8.596;2024-03-08T09:58:17;22.67;;;15.27;;
55069;SDS011;40967;52.070;8.596;2024-03-08T10:01:01;23.77;;;15.95;;
55069;SDS011;40967;52.070;8.596;2024-03-08T10:03:31;23.02;;;15.23;;
55069;SDS011;40967;52.070;8.596;2024-03-08T10:05:57;21.10;;;14.30;;
55069;SDS011;40967;52.070;8.596;2024-03-08T10:08:28;23.20;;;15.13;;
55069;SDS011;40967;52.070;8.596;2024-03-08T10:10:55;22.35;;;14.82;;
55069;SDS011;40967;52.070;8.596;2024-03-08T10:13:23;20.48;;;14.18;;
55069;SDS011;40967;52.070;8.596;2024-03-08T10:15:52;20.35;;;14.00;;
55069;SDS011;40967;52.070;8.596;2024-03-08T10:18:19;22.30;;;15.43;;
55069;SDS011;40967;52.070;8.596;2024-03-08T10:20:49;22.67;;;14.93;;
55069;SDS011;40967;52.070;8.596;2024-03-08T10:23:29;20.47;;;14.10;;
55069;SDS011;40967;52.070;8.596;2024-03-08T10:26:09;21.07;;;14.13;;
55069;SDS011;40967;52.070;8.596;2024-03-08T10:28:39;22.55;;;15.50;;
55069;SDS011;40967;52.070;8.596;2024-03-08T10:31:09;19.58;;;13.80;;
55069;SDS011;40967;52.070;8.596;2024-03-08T10:33:36;18.15;;;11.75;;
55069;SDS011;40967;52.070;8.596;2024-03-08T10:36:07;18.80;;;12.77;;
55069;SDS011;40967;52.070;8.596;2024-03-08T10:38:35;20.55;;;13.85;;
55069;SDS011;40967;52.070;8.596;2024-03-08T10:41:06;17.95;;;12.32;;
55069;SDS011;40967;52.070;8.596;2024-03-08T10:43:41;18.75;;;12.20;;
55069;SDS011;40967;52.070;8.596;2024-03-08T10:46:36;17.80;;;12.70;;
55069;SDS011;40967;52.070;8.596;2024-03-08T10:49:20;20.25;;;13.68;;
55069;SDS011;40967;52.070;8.596;2024-03-08T10:51:58;16.77;;;11.98;;
55069;SDS011;40967;52.070;8.596;2024-03-08T10:54:26;19.73;;;13.17;;
55069;SDS011;40967;52.070;8.596;2024-03-08T10:56:53;19.63;;;13.57;;
55069;SDS011;40967;52.070;8.596;2024-03-08T10:59:21;19.25;;;13.27;;
55069;SDS011;40967;52.070;8.596;2024-03-08T11:01:49;17.40;;;12.20;;
55069;SDS011;40967;52.070;8.596;2024-03-08T11:04:17;19.60;;;13.95;;
55069;SDS011;40967;52.070;8.596;2024-03-08T11:06:48;17.55;;;12.50;;
55069;SDS011;40967;52.070;8.596;2024-03-08T11:09:28;17.48;;;12.00;;
55069;SDS011;40967;52.070;8.596;2024-03-08T11:14:50;17.83;;;12.68;;
55069;SDS011;40967;52.070;8.596;2024-03-08T11:17:20;20.77;;;13.20;;
55069;SDS011;40967;52.070;8.596;2024-03-08T11:19:48;19.35;;;12.85;;
55069;SDS011;40967;52.070;8.596;2024-03-08T11:22:20;16.70;;;12.05;;
55069;SDS011;40967;52.070;8.596;2024-03-08T11:24:51;19.87;;;13.23;;
55069;SDS011;40967;52.070;8.596;2024-03-08T11:27:18;18.33;;;13.20;;
55069;SDS011;40967;52.070;8.596;2024-03-08T11:29:53;20.52;;;14.13;;
55069;SDS011;40967;52.070;8.596;2024-03-08T11:32:33;19.48;;;13.10;;
55069;SDS011;40967;52.070;8.596;2024-03-08T11:35:01;18.83;;;12.57;;
55069;SDS011;40967;52.070;8.596;2024-03-08T11:37:33;19.08;;;12.98;;
55069;SDS011;40967;52.070;8.596;2024-03-08T11:40:02;19.50;;;13.32;;
55069;SDS011;40967;52.070;8.596;2024-03-08T11:42:39;19.40;;;12.68;;
55069;SDS011;40967;52.070;8.596;2024-03-08T11:45:10;18.60;;;12.50;;
55069;SDS011;40967;52.070;8.596;2024-03-08T11:47:41;16.50;;;11.65;;
55069;SDS011;40967;52.070;8.596;2024-03-08T11:50:21;17.25;;;11.60;;
55069;SDS011;40967;52.070;8.596;2024-03-08T11:52:49;17.40;;;12.27;;
55069;SDS011;40967;52.070;8.596;2024-03-08T11:55:34;16.27;;;11.30;;
55069;SDS011;40967;52.070;8.596;2024-03-08T11:58:04;15.30;;;10.60;;
55069;SDS011;40967;52.070;8.596;2024-03-08T12:00:35;20.08;;;13.63;;
55069;SDS011;40967;52.070;8.596;2024-03-08T12:03:12;17.90;;;12.07;;
55069;SDS011;40967;52.070;8.596;2024-03-08T12:05:52;16.30;;;10.88;;
55069;SDS011;40967;52.070;8.596;2024-03-08T12:08:25;14.23;;;9.52;;
55069;SDS011;40967;52.070;8.596;2024-03-08T12:10:54;15.80;;;10.63;;
55069;SDS011;40967;52.070;8.596;2024-03-08T12:13:25;14.70;;;10.80;;
55069;SDS011;40967;52.070;8.596;2024-03-08T12:16:11;16.23;;;10.80;;
55069;SDS011;40967;52.070;8.596;2024-03-08T12:18:38;14.70;;;10.70;;
55069;SDS011;40967;52.070;8.596;2024-03-08T12:21:20;16.25;;;11.15;;
55069;SDS011;40967;52.070;8.596;2024-03-08T12:24:01;14.88;;;10.45;;
55069;SDS011;40967;52.070;8.596;2024-03-08T12:26:31;14.57;;;10.27;;
55069;SDS011;40967;52.070;8.596;2024-03-08T12:29:14;14.82;;;10.10;;
55069;SDS011;40967;52.070;8.596;2024-03-08T12:31:43;14.05;;;9.27;;
55069;SDS011;40967;52.070;8.596;2024-03-08T12:34:10;13.93;;;9.57;;
55069;SDS011;40967;52.070;8.596;2024-03-08T12:36:51;14.23;;;9.57;;
55069;SDS011;40967;52.070;8.596;2024-03-08T12:39:21;15.10;;;9.90;;
55069;SDS011;40967;52.070;8.596;2024-03-08T12:41:56;16.48;;;11.27;;
55069;SDS011;40967;52.070;8.596;2024-03-08T12:44:24;13.27;;;8.97;;
55069;SDS011;40967;52.070;8.596;2024-03-08T12:46:53;16.48;;;11.15;;
55069;SDS011;40967;52.070;8.596;2024-03-08T12:49:20;14.98;;;10.15;;
55069;SDS011;40967;52.070;8.596;2024-03-08T12:51:47;16.00;;;10.88;;
55069;SDS011;40967;52.070;8.596;2024-03-08T12:54:22;16.77;;;10.93;;
55069;SDS011;40967;52.070;8.596;2024-03-08T12:56:52;16.88;;;10.95;;
55069;SDS011;40967;52.070;8.596;2024-03-08T12:59:19;15.10;;;10.57;;
55069;SDS011;40967;52.070;8.596;2024-03-08T13:01:53;17.08;;;11.63;;
55069;SDS011;40967;52.070;8.596;2024-03-08T13:04:24;16.95;;;11.00;;
55069;SDS011;40967;52.070;8.596;2024-03-08T13:06:53;16.98;;;11.23;;
55069;SDS011;40967;52.070;8.596;2024-03-08T13:09:20;20.23;;;13.50;;
55069;SDS011;40967;52.070;8.596;2024-03-08T13:11:48;16.17;;;11.38;;
55069;SDS011;40967;52.070;8.596;2024-03-08T13:14:16;16.23;;;11.07;;
55069;SDS011;40967;52.070;8.596;2024-03-08T13:16:45;16.38;;;11.55;;
55069;SDS011;40967;52.070;8.596;2024-03-08T13:19:16;17.85;;;11.95;;
55069;SDS011;40967;52.070;8.596;2024-03-08T13:21:53;17.95;;;12.13;;
55069;SDS011;40967;52.070;8.596;2024-03-08T13:24:20;17.00;;;11.68;;
55069;SDS011;40967;52.070;8.596;2024-03-08T13:26:55;15.98;;;10.73;;
55069;SDS011;40967;52.070;8.596;2024-03-08T13:29:26;17.05;;;11.57;;
55069;SDS011;40967;52.070;8.596;2024-03-08T13:31:59;15.85;;;11.02;;
55069;SDS011;40967;52.070;8.596;2024-03-08T13:34:28;17.17;;;11.40;;
55069;SDS011;40967;52.070;8.596;2024-03-08T13:36:56;15.43;;;10.57;;
55069;SDS011;40967;52.070;8.596;2024-03-08T13:39:32;19.73;;;12.95;;
55069;SDS011;40967;52.070;8.596;2024-03-08T13:42:09;17.13;;;12.20;;
55069;SDS011;40967;52.070;8.596;2024-03-08T13:44:40;18.08;;;12.25;;
55069;SDS011;40967;52.070;8.596;2024-03-08T13:47:11;17.38;;;12.13;;
55069;SDS011;40967;52.070;8.596;2024-03-08T13:49:40;16.98;;;11.68;;
55069;SDS011;40967;52.070;8.596;2024-03-08T13:52:08;20.83;;;14.18;;
55069;SDS011;40967;52.070;8.596;2024-03-08T13:54:37;18.77;;;12.55;;
55069;SDS011;40967;52.070;8.596;2024-03-08T13:57:07;19.80;;;12.73;;
55069;SDS011;40967;52.070;8.596;2024-03-08T13:59:34;17.25;;;11.57;;
55069;SDS011;40967;52.070;8.596;2024-03-08T14:02:07;16.75;;;11.65;;
55069;SDS011;40967;52.070;8.596;2024-03-08T14:04:38;18.88;;;12.35;;
55069;SDS011;40967;52.070;8.596;2024-03-08T14:07:06;21.23;;;14.10;;
55069;SDS011;40967;52.070;8.596;2024-03-08T14:09:39;17.25;;;11.48;;
55069;SDS011;40967;52.070;8.596;2024-03-08T14:12:08;16.42;;;11.32;;
55069;SDS011;40967;52.070;8.596;2024-03-08T14:14:38;17.42;;;12.18;;
55069;SDS011;40967;52.070;8.596;2024-03-08T14:17:09;17.98;;;12.25;;
55069;SDS011;40967;52.070;8.596;2024-03-08T14:19:38;18.58;;;13.05;;
55069;SDS011;40967;52.070;8.596;2024-03-08T14:22:05;17.63;;;11.85;;
55069;SDS011;40967;52.070;8.596;2024-03-08T14:24:35;19.77;;;12.65;;
55069;SDS011;40967;52.070;8.596;2024-03-08T14:27:08;19.52;;;13.27;;
55069;SDS011;40967;52.070;8.596;2024-03-08T14:29:44;18.83;;;13.18;;
55069;SDS011;40967;52.070;8.596;2024-03-08T14:32:24;18.58;;;13.25;;
55069;SDS011;40967;52.070;8.596;2024-03-08T14:35:18;18.00;;;12.18;;
55069;SDS011;40967;52.070;8.596;2024-03-08T14:37:51;17.90;;;11.73;;
55069;SDS011;40967;52.070;8.596;2024-03-08T14:40:18;17.42;;;11.50;;
55069;SDS011;40967;52.070;8.596;2024-03-08T14:42:47;18.30;;;12.27;;
55069;SDS011;40967;52.070;8.596;2024-03-08T14:45:26;18.17;;;12.40;;